Autumn — V7QA6 — position and weather

sailwx.info

Track history (hours):
 
Tides and Currents Weather Stations Pressure Air Temp Water Temp Dewpoint Dewpoint Depression Visibility Wind Speed Wind Dir Waves Ship Positions

Autumn

Last reported at 2016-Aug-25 00:33 UTC. Time now 2016-Aug-25 00:58 UTC.
Position N 52°09' E 003°44'.

Length 129 m; draft 6.2 m.

Type: Tanker. MMSI: 538003323.

Date/timePositionNaut miles runAvg speedWind from/ knotsBaromVisibWave heightAir tempDewpointWater temp
2016-Aug-25 00:33N 52°09' E 003°44'0 0.0
2016-Aug-24 23:34N 52°09' E 003°44'0 0.1
2016-Aug-24 22:30N 52°09' E 003°44'0 0.1
2016-Aug-24 21:34N 52°09' E 003°44'0 0.1
2016-Aug-24 20:24N 52°09' E 003°44'0 0.0
2016-Aug-24 19:33N 52°09' E 003°44'0 0.0
2016-Aug-24 18:30N 52°09' E 003°44'0 0.0
2016-Aug-24 17:31N 52°09' E 003°44'0 0.1
2016-Aug-24 16:27N 52°09' E 003°44'0 0.1
2016-Aug-24 15:30N 52°09' E 003°44'0 0.0
2016-Aug-24 14:31N 52°09' E 003°44'0 0.0
2016-Aug-24 13:33N 52°09' E 003°44'0 0.0
2016-Aug-24 12:28N 52°09' E 003°44'0 0.0
2016-Aug-24 11:33N 52°09' E 003°44'0 0.1
2016-Aug-24 10:33N 52°09' E 003°44'0 0.1
2016-Aug-24 09:31N 52°09' E 003°44'0 0.0
2016-Aug-24 08:12N 52°09' E 003°44'0 0.0
2016-Aug-24 07:33N 52°09' E 003°44'0 0.0
2016-Aug-24 06:30N 52°09' E 003°44'0 0.0
2016-Aug-24 04:33N 52°09' E 003°44'7 7.2
2016-Aug-24 03:33N 52°04' E 003°52'1212.0
2016-Aug-24 02:33N 51°58' E 004°09'1110.7
2016-Aug-24 01:33N 51°54' E 004°25'1 0.9
2016-Aug-24 00:31N 51°54' E 004°27'0 0.0
2016-Aug-23 23:31N 51°54' E 004°27'0 0.0
2016-Aug-23 22:31N 51°54' E 004°27'0 0.0
2016-Aug-23 21:31N 51°54' E 004°27'0 0.0
2016-Aug-23 20:28N 51°54' E 004°27'0 0.0
2016-Aug-23 19:31N 51°54' E 004°27'0 0.0
2016-Aug-23 18:31N 51°54' E 004°27'0 0.0
2016-Aug-23 17:31N 51°54' E 004°27'0 0.0
2016-Aug-23 16:31N 51°54' E 004°27'0 0.0
2016-Aug-23 15:31N 51°54' E 004°27'0 0.0
2016-Aug-23 14:28N 51°54' E 004°27'0 0.0
2016-Aug-23 13:31N 51°54' E 004°27'0 0.0
2016-Aug-23 12:31N 51°54' E 004°27'0 0.0
2016-Aug-23 11:31N 51°54' E 004°27'0 0.2
2016-Aug-23 10:34N 51°54' E 004°26'7 6.9
2016-Aug-23 09:33N 51°55' E 004°15'9 9.1
2016-Aug-23 08:33N 51°59' E 004°03'1110.6
2016-Aug-23 07:34N 52°04' E 003°47'9 9.0
2016-Aug-23 06:33N 52°13' E 003°47'1010.0
2016-Aug-23 05:33N 52°23' E 003°50'5 5.1
2016-Aug-23 04:33N 52°26' E 003°57'0 0.0
2016-Aug-23 03:33N 52°26' E 003°57'0 0.1
2016-Aug-23 02:33N 52°25' E 003°57'0 0.0
2016-Aug-23 01:33N 52°25' E 003°57'0 0.0
2016-Aug-23 00:33N 52°25' E 003°57'0 0.0
2016-Aug-22 23:33N 52°25' E 003°57'0 0.1
2016-Aug-22 22:33N 52°25' E 003°58'0 0.1
2016-Aug-22 21:24N 52°26' E 003°58'0 0.0
2016-Aug-22 20:33N 52°26' E 003°58'0 0.0
2016-Aug-22 19:30N 52°26' E 003°58'0 0.0
2016-Aug-22 18:30N 52°26' E 003°58'0 0.0
2016-Aug-22 17:27N 52°26' E 003°58'0 0.0
2016-Aug-22 16:33N 52°26' E 003°58'0 0.0
2016-Aug-22 15:30N 52°26' E 003°58'0 0.0
2016-Aug-22 14:21N 52°26' E 003°58'0 0.0
2016-Aug-22 13:33N 52°26' E 003°58'0 0.1
2016-Aug-22 12:33N 52°25' E 003°58'0 0.0
2016-Aug-22 11:33N 52°25' E 003°57'0 0.1
2016-Aug-22 10:33N 52°25' E 003°58'0 0.0
2016-Aug-22 09:21N 52°25' E 003°58'0 0.0
2016-Aug-22 08:33N 52°26' E 003°58'0 0.0
2016-Aug-22 04:33N 52°26' E 003°58'0 0.0
2016-Aug-22 03:27N 52°26' E 003°58'0 0.0
2016-Aug-22 02:27N 52°26' E 003°58'0 0.0
2016-Aug-22 01:33N 52°25' E 003°58'0 0.1
2016-Aug-22 00:33N 52°25' E 003°58'0 0.1
2016-Aug-21 23:30N 52°25' E 003°57'0 0.1
2016-Aug-21 22:33N 52°25' E 003°58'0 0.1
2016-Aug-21 21:33N 52°25' E 003°58'0 0.0
2016-Aug-21 20:24N 52°26' E 003°58'0 0.0
2016-Aug-21 19:33N 52°26' E 003°58'0 0.0
2016-Aug-21 18:33N 52°26' E 003°58'0 0.0
2016-Aug-21 16:24N 52°26' E 003°58'0 0.0
2016-Aug-21 14:27N 52°25' E 003°58'0 0.0
2016-Aug-21 13:24N 52°25' E 003°58'0 0.1
2016-Aug-21 12:15N 52°25' E 003°58'0 0.0
2016-Aug-21 11:33N 52°25' E 003°58'0 0.0
2016-Aug-21 10:33N 52°25' E 003°57'0 0.1
2016-Aug-21 09:24N 52°25' E 003°58'0 0.1
2016-Aug-21 08:27N 52°25' E 003°58'0 0.0
2016-Aug-21 07:24N 52°26' E 003°58'0 0.1
2016-Aug-21 06:21N 52°26' E 003°58'0 0.0
2016-Aug-21 05:24N 52°26' E 003°58'0 0.0
2016-Aug-21 04:30N 52°26' E 003°57'0 0.0
2016-Aug-21 03:09N 52°26' E 003°58'0 0.0
2016-Aug-21 02:33N 52°26' E 003°57'0 0.0
2016-Aug-21 01:18N 52°26' E 003°57'0 0.0
2016-Aug-21 00:33N 52°26' E 003°57'0 0.0
2016-Aug-20 23:33N 52°25' E 003°57'0 0.0
2016-Aug-20 22:27N 52°25' E 003°57'0 0.0
2016-Aug-20 21:33N 52°25' E 003°57'0 0.0
2016-Aug-20 20:27N 52°25' E 003°57'0 0.0
2016-Aug-20 19:21N 52°25' E 003°57'0 0.0
2016-Aug-20 18:27N 52°25' E 003°57'0 0.0
2016-Aug-20 17:33N 52°25' E 003°57'0 0.0
2016-Aug-20 16:24N 52°25' E 003°57'0 0.0
2016-Aug-20 14:24N 52°25' E 003°57'0 0.0
2016-Aug-20 13:33N 52°25' E 003°57'0 0.0
2016-Aug-20 12:33N 52°25' E 003°57'0 0.0
2016-Aug-20 11:33N 52°25' E 003°57'0 0.0
2016-Aug-20 10:27N 52°25' E 003°57'0 0.0
2016-Aug-20 09:33N 52°25' E 003°57'0 0.0
2016-Aug-20 08:33N 52°25' E 003°57'0 0.0
2016-Aug-20 07:21N 52°25' E 003°57'0 0.0
2016-Aug-20 06:27N 52°25' E 003°57'0 0.0
2016-Aug-20 04:30N 52°25' E 003°57'0 0.0
2016-Aug-20 03:33N 52°25' E 003°57'0 0.0
2016-Aug-20 02:24N 52°25' E 003°57'0 0.0
2016-Aug-20 01:30N 52°25' E 003°57'0 0.0
2016-Aug-20 00:09N 52°25' E 003°57'0 0.1
2016-Aug-19 23:30N 52°25' E 003°57'0 0.1
2016-Aug-19 22:33N 52°25' E 003°57'0 0.0
2016-Aug-19 21:15N 52°25' E 003°57'0 0.1
2016-Aug-19 20:27N 52°25' E 003°57'0 0.2
2016-Aug-19 19:33N 52°25' E 003°57'0 0.1
2016-Aug-19 18:33N 52°25' E 003°57'0 0.0
2016-Aug-19 17:21N 52°25' E 003°57'0 0.0
2016-Aug-19 16:18N 52°25' E 003°57'0 0.0
2016-Aug-19 15:30N 52°25' E 003°57'0 0.0
2016-Aug-19 14:30N 52°25' E 003°57'0 0.1
2016-Aug-19 13:27N 52°25' E 003°57'0 0.1
2016-Aug-19 12:33N 52°25' E 003°57'0 0.0
2016-Aug-19 11:33N 52°25' E 003°57'0 0.0
2016-Aug-19 10:33N 52°25' E 003°57'0 0.0
2016-Aug-19 09:33N 52°25' E 003°57'0 0.0
2016-Aug-19 08:33N 52°25' E 003°57'0 0.0
2016-Aug-19 07:33N 52°25' E 003°57'0 0.0
2016-Aug-19 06:33N 52°25' E 003°57'0 0.1
2016-Aug-19 05:27N 52°25' E 003°57'0 0.0
2016-Aug-19 04:30N 52°25' E 003°57'0 0.0
2016-Aug-19 03:33N 52°25' E 003°57'0 0.0
2016-Aug-19 02:33N 52°25' E 003°57'0 0.1
2016-Aug-19 01:27N 52°25' E 003°57'0 0.1
2016-Aug-19 00:33N 52°25' E 003°57'0 0.0
2016-Aug-18 23:33N 52°25' E 003°57'0 0.0
2016-Aug-18 22:33N 52°25' E 003°57'0 0.0
2016-Aug-18 21:33N 52°25' E 003°57'0 0.0
2016-Aug-18 20:27N 52°25' E 003°57'0 0.0
2016-Aug-18 19:33N 52°25' E 003°57'0 0.0
2016-Aug-18 18:27N 52°25' E 003°57'0 0.0
2016-Aug-18 17:33N 52°25' E 003°57'0 0.1
2016-Aug-18 16:30N 52°25' E 003°57'0 0.0
2016-Aug-18 15:27N 52°25' E 003°57'0 0.0
2016-Aug-18 14:33N 52°25' E 003°57'0 0.1
2016-Aug-18 13:30N 52°25' E 003°57'0 0.1
2016-Aug-18 12:27N 52°25' E 003°57'0 0.0
2016-Aug-18 11:33N 52°25' E 003°57'0 0.0
2016-Aug-18 10:21N 52°25' E 003°57'0 0.0
2016-Aug-18 09:30N 52°25' E 003°57'0 0.0
2016-Aug-18 08:33N 52°25' E 003°57'0 0.0
2016-Aug-18 07:33N 52°25' E 003°57'0 0.0
2016-Aug-18 06:33N 52°25' E 003°57'0 0.0
2016-Aug-18 05:33N 52°25' E 003°57'0 0.1
2016-Aug-18 04:33N 52°25' E 003°57'0 0.0
2016-Aug-18 03:27N 52°25' E 003°57'0 0.0
2016-Aug-18 02:33N 52°25' E 003°57'0 0.0
2016-Aug-18 01:33N 52°25' E 003°57'0 0.1
2016-Aug-18 00:33N 52°25' E 003°57'0 0.0
2016-Aug-17 23:33N 52°25' E 003°57'0 0.0
2016-Aug-17 22:33N 52°25' E 003°57'0 0.0
2016-Aug-17 21:33N 52°25' E 003°57'0 0.0
2016-Aug-17 20:33N 52°25' E 003°57'0 0.0
2016-Aug-17 19:33N 52°25' E 003°57'0 0.0
2016-Aug-17 18:33N 52°25' E 003°57'0 0.0
2016-Aug-17 17:33N 52°25' E 003°57'0 0.1
2016-Aug-17 16:33N 52°25' E 003°57'0 0.0
2016-Aug-17 15:33N 52°25' E 003°57'0 0.0
2016-Aug-17 14:33N 52°25' E 003°57'0 0.0
2016-Aug-17 13:33N 52°25' E 003°57'0 0.1
2016-Aug-17 12:33N 52°25' E 003°57'0 0.0
2016-Aug-17 11:33N 52°25' E 003°57'0 0.0
2016-Aug-17 10:33N 52°25' E 003°57'0 0.0
2016-Aug-17 09:33N 52°25' E 003°57'0 0.0
2016-Aug-17 08:33N 52°25' E 003°57'0 0.0
2016-Aug-17 07:21N 52°25' E 003°57'0 0.0
2016-Aug-17 06:33N 52°25' E 003°57'0 0.0
2016-Aug-17 05:33N 52°25' E 003°57'0 0.1
2016-Aug-17 04:27N 52°25' E 003°57'0 0.0
2016-Aug-17 03:33N 52°25' E 003°57'0 0.0
2016-Aug-17 02:33N 52°25' E 003°57'0 0.0
2016-Aug-17 01:30N 52°25' E 003°57'0 0.1
2016-Aug-17 00:33N 52°25' E 003°57'0 0.1
2016-Aug-16 23:33N 52°25' E 003°57'0 0.0
2016-Aug-16 22:33N 52°25' E 003°57'0 0.0
2016-Aug-16 21:33N 52°25' E 003°57'0 0.0
2016-Aug-16 20:33N 52°25' E 003°57'0 0.0
2016-Aug-16 19:27N 52°25' E 003°57'0 0.0
2016-Aug-16 18:27N 52°25' E 003°57'0 0.0
2016-Aug-16 17:33N 52°25' E 003°57'0 0.1
2016-Aug-16 16:21N 52°25' E 003°57'0 0.1
2016-Aug-16 15:33N 52°25' E 003°57'0 0.0
2016-Aug-16 14:33N 52°25' E 003°57'0 0.0
2016-Aug-16 13:33N 52°25' E 003°57'0 0.0
2016-Aug-16 12:33N 52°25' E 003°57'0 0.1
2016-Aug-16 11:33N 52°25' E 003°57'0 0.1
2016-Aug-16 10:33N 52°25' E 003°57'0 0.0
2016-Aug-16 09:33N 52°25' E 003°57'0 0.0
2016-Aug-16 08:33N 52°25' E 003°57'0 0.0
2016-Aug-16 07:33N 52°25' E 003°57'0 0.0
2016-Aug-16 06:33N 52°25' E 003°57'0 0.0
2016-Aug-16 04:33N 52°25' E 003°57'0 0.1
2016-Aug-16 03:33N 52°25' E 003°57'0 0.0
2016-Aug-16 02:33N 52°25' E 003°57'0 0.0
2016-Aug-16 01:33N 52°25' E 003°57'0 0.0
2016-Aug-16 00:33N 52°25' E 003°57'0 0.1
2016-Aug-15 23:33N 52°25' E 003°57'0 0.0
2016-Aug-15 22:33N 52°25' E 003°57'0 0.0
2016-Aug-15 21:33N 52°25' E 003°57'0 0.0
2016-Aug-15 20:33N 52°25' E 003°57'0 0.0
2016-Aug-15 19:33N 52°25' E 003°57'0 0.0
2016-Aug-15 18:33N 52°25' E 003°57'0 0.0
2016-Aug-15 17:33N 52°25' E 003°57'0 0.0
2016-Aug-15 16:33N 52°25' E 003°57'0 0.0
2016-Aug-15 15:33N 52°25' E 003°57'0 0.1
2016-Aug-15 14:33N 52°25' E 003°57'0 0.1
2016-Aug-15 13:33N 52°25' E 003°57'0 0.0
2016-Aug-15 12:27N 52°25' E 003°57'0 0.1
2016-Aug-15 11:21N 52°25' E 003°57'0 0.0
2016-Aug-15 10:33N 52°25' E 003°57'0 0.0
2016-Aug-15 09:33N 52°25' E 003°57'0 0.0
2016-Aug-15 08:33N 52°25' E 003°57'0 0.0
2016-Aug-15 07:33N 52°25' E 003°57'0 0.0
2016-Aug-15 06:33N 52°25' E 003°57'0 0.0
2016-Aug-15 04:33N 52°25' E 003°57'0 0.0
2016-Aug-15 03:30N 52°25' E 003°57'0 0.1
2016-Aug-15 02:33N 52°25' E 003°57'0 0.0
2016-Aug-15 01:30N 52°25' E 003°57'  
Track history (hours):
 
Tides and Currents Weather Stations Pressure Air Temp Water Temp Dewpoint Dewpoint Depression Visibility Wind Speed Wind Dir Waves Ship Positions

Autumn

Last reported at 2016-Aug-25 00:33 UTC. Time now 2016-Aug-25 00:58 UTC.
Position N 52°09' E 003°44'.

Length 129 m; draft 6.2 m.

Type: Tanker. MMSI: 538003323.

Date/timePositionNaut miles runAvg speedWind from/ knotsBaromVisibWave heightAir tempDewpointWater temp
2016-Aug-25 00:33N 52°09' E 003°44'0 0.0
2016-Aug-24 23:34N 52°09' E 003°44'0 0.1
2016-Aug-24 22:30N 52°09' E 003°44'0 0.1
2016-Aug-24 21:34N 52°09' E 003°44'0 0.1
2016-Aug-24 20:24N 52°09' E 003°44'0 0.0
2016-Aug-24 19:33N 52°09' E 003°44'0 0.0
2016-Aug-24 18:30N 52°09' E 003°44'0 0.0
2016-Aug-24 17:31N 52°09' E 003°44'0 0.1
2016-Aug-24 16:27N 52°09' E 003°44'0 0.1
2016-Aug-24 15:30N 52°09' E 003°44'0 0.0
2016-Aug-24 14:31N 52°09' E 003°44'0 0.0
2016-Aug-24 13:33N 52°09' E 003°44'0 0.0
2016-Aug-24 12:28N 52°09' E 003°44'0 0.0
2016-Aug-24 11:33N 52°09' E 003°44'0 0.1
2016-Aug-24 10:33N 52°09' E 003°44'0 0.1
2016-Aug-24 09:31N 52°09' E 003°44'0 0.0
2016-Aug-24 08:12N 52°09' E 003°44'0 0.0
2016-Aug-24 07:33N 52°09' E 003°44'0 0.0
2016-Aug-24 06:30N 52°09' E 003°44'0 0.0
2016-Aug-24 04:33N 52°09' E 003°44'7 7.2
2016-Aug-24 03:33N 52°04' E 003°52'1212.0
2016-Aug-24 02:33N 51°58' E 004°09'1110.7
2016-Aug-24 01:33N 51°54' E 004°25'1 0.9
2016-Aug-24 00:31N 51°54' E 004°27'0 0.0
2016-Aug-23 23:31N 51°54' E 004°27'0 0.0
2016-Aug-23 22:31N 51°54' E 004°27'0 0.0
2016-Aug-23 21:31N 51°54' E 004°27'0 0.0
2016-Aug-23 20:28N 51°54' E 004°27'0 0.0
2016-Aug-23 19:31N 51°54' E 004°27'0 0.0
2016-Aug-23 18:31N 51°54' E 004°27'0 0.0
2016-Aug-23 17:31N 51°54' E 004°27'0 0.0
2016-Aug-23 16:31N 51°54' E 004°27'0 0.0
2016-Aug-23 15:31N 51°54' E 004°27'0 0.0
2016-Aug-23 14:28N 51°54' E 004°27'0 0.0
2016-Aug-23 13:31N 51°54' E 004°27'0 0.0
2016-Aug-23 12:31N 51°54' E 004°27'0 0.0
2016-Aug-23 11:31N 51°54' E 004°27'0 0.2
2016-Aug-23 10:34N 51°54' E 004°26'7 6.9
2016-Aug-23 09:33N 51°55' E 004°15'9 9.1
2016-Aug-23 08:33N 51°59' E 004°03'1110.6
2016-Aug-23 07:34N 52°04' E 003°47'9 9.0
2016-Aug-23 06:33N 52°13' E 003°47'1010.0
2016-Aug-23 05:33N 52°23' E 003°50'5 5.1
2016-Aug-23 04:33N 52°26' E 003°57'0 0.0
2016-Aug-23 03:33N 52°26' E 003°57'0 0.1
2016-Aug-23 02:33N 52°25' E 003°57'0 0.0
2016-Aug-23 01:33N 52°25' E 003°57'0 0.0
2016-Aug-23 00:33N 52°25' E 003°57'0 0.0
2016-Aug-22 23:33N 52°25' E 003°57'0 0.1
2016-Aug-22 22:33N 52°25' E 003°58'0 0.1
2016-Aug-22 21:24N 52°26' E 003°58'0 0.0
2016-Aug-22 20:33N 52°26' E 003°58'0 0.0
2016-Aug-22 19:30N 52°26' E 003°58'0 0.0
2016-Aug-22 18:30N 52°26' E 003°58'0 0.0
2016-Aug-22 17:27N 52°26' E 003°58'0 0.0
2016-Aug-22 16:33N 52°26' E 003°58'0 0.0
2016-Aug-22 15:30N 52°26' E 003°58'0 0.0
2016-Aug-22 14:21N 52°26' E 003°58'0 0.0
2016-Aug-22 13:33N 52°26' E 003°58'0 0.1
2016-Aug-22 12:33N 52°25' E 003°58'0 0.0
2016-Aug-22 11:33N 52°25' E 003°57'0 0.1
2016-Aug-22 10:33N 52°25' E 003°58'0 0.0
2016-Aug-22 09:21N 52°25' E 003°58'0 0.0
2016-Aug-22 08:33N 52°26' E 003°58'0 0.0
2016-Aug-22 04:33N 52°26' E 003°58'0 0.0
2016-Aug-22 03:27N 52°26' E 003°58'0 0.0
2016-Aug-22 02:27N 52°26' E 003°58'0 0.0
2016-Aug-22 01:33N 52°25' E 003°58'0 0.1
2016-Aug-22 00:33N 52°25' E 003°58'0 0.1
2016-Aug-21 23:30N 52°25' E 003°57'0 0.1
2016-Aug-21 22:33N 52°25' E 003°58'0 0.1
2016-Aug-21 21:33N 52°25' E 003°58'0 0.0
2016-Aug-21 20:24N 52°26' E 003°58'0 0.0
2016-Aug-21 19:33N 52°26' E 003°58'0 0.0
2016-Aug-21 18:33N 52°26' E 003°58'0 0.0
2016-Aug-21 16:24N 52°26' E 003°58'0 0.0
2016-Aug-21 14:27N 52°25' E 003°58'0 0.0
2016-Aug-21 13:24N 52°25' E 003°58'0 0.1
2016-Aug-21 12:15N 52°25' E 003°58'0 0.0
2016-Aug-21 11:33N 52°25' E 003°58'0 0.0
2016-Aug-21 10:33N 52°25' E 003°57'0 0.1
2016-Aug-21 09:24N 52°25' E 003°58'0 0.1
2016-Aug-21 08:27N 52°25' E 003°58'0 0.0
2016-Aug-21 07:24N 52°26' E 003°58'0 0.1
2016-Aug-21 06:21N 52°26' E 003°58'0 0.0
2016-Aug-21 05:24N 52°26' E 003°58'0 0.0
2016-Aug-21 04:30N 52°26' E 003°57'0 0.0
2016-Aug-21 03:09N 52°26' E 003°58'0 0.0
2016-Aug-21 02:33N 52°26' E 003°57'0 0.0
2016-Aug-21 01:18N 52°26' E 003°57'0 0.0
2016-Aug-21 00:33N 52°26' E 003°57'0 0.0
2016-Aug-20 23:33N 52°25' E 003°57'0 0.0
2016-Aug-20 22:27N 52°25' E 003°57'0 0.0
2016-Aug-20 21:33N 52°25' E 003°57'0 0.0
2016-Aug-20 20:27N 52°25' E 003°57'0 0.0
2016-Aug-20 19:21N 52°25' E 003°57'0 0.0
2016-Aug-20 18:27N 52°25' E 003°57'0 0.0
2016-Aug-20 17:33N 52°25' E 003°57'0 0.0
2016-Aug-20 16:24N 52°25' E 003°57'0 0.0
2016-Aug-20 14:24N 52°25' E 003°57'0 0.0
2016-Aug-20 13:33N 52°25' E 003°57'0 0.0
2016-Aug-20 12:33N 52°25' E 003°57'0 0.0
2016-Aug-20 11:33N 52°25' E 003°57'0 0.0
2016-Aug-20 10:27N 52°25' E 003°57'0 0.0
2016-Aug-20 09:33N 52°25' E 003°57'0 0.0
2016-Aug-20 08:33N 52°25' E 003°57'0 0.0
2016-Aug-20 07:21N 52°25' E 003°57'0 0.0
2016-Aug-20 06:27N 52°25' E 003°57'0 0.0
2016-Aug-20 04:30N 52°25' E 003°57'0 0.0
2016-Aug-20 03:33N 52°25' E 003°57'0 0.0
2016-Aug-20 02:24N 52°25' E 003°57'0 0.0
2016-Aug-20 01:30N 52°25' E 003°57'0 0.0
2016-Aug-20 00:09N 52°25' E 003°57'0 0.1
2016-Aug-19 23:30N 52°25' E 003°57'0 0.1
2016-Aug-19 22:33N 52°25' E 003°57'0 0.0
2016-Aug-19 21:15N 52°25' E 003°57'0 0.1
2016-Aug-19 20:27N 52°25' E 003°57'0 0.2
2016-Aug-19 19:33N 52°25' E 003°57'0 0.1
2016-Aug-19 18:33N 52°25' E 003°57'0 0.0
2016-Aug-19 17:21N 52°25' E 003°57'0 0.0
2016-Aug-19 16:18N 52°25' E 003°57'0 0.0
2016-Aug-19 15:30N 52°25' E 003°57'0 0.0
2016-Aug-19 14:30N 52°25' E 003°57'0 0.1
2016-Aug-19 13:27N 52°25' E 003°57'0 0.1
2016-Aug-19 12:33N 52°25' E 003°57'0 0.0
2016-Aug-19 11:33N 52°25' E 003°57'0 0.0
2016-Aug-19 10:33N 52°25' E 003°57'0 0.0
2016-Aug-19 09:33N 52°25' E 003°57'0 0.0
2016-Aug-19 08:33N 52°25' E 003°57'0 0.0
2016-Aug-19 07:33N 52°25' E 003°57'0 0.0
2016-Aug-19 06:33N 52°25' E 003°57'0 0.1
2016-Aug-19 05:27N 52°25' E 003°57'0 0.0
2016-Aug-19 04:30N 52°25' E 003°57'0 0.0
2016-Aug-19 03:33N 52°25' E 003°57'0 0.0
2016-Aug-19 02:33N 52°25' E 003°57'0 0.1
2016-Aug-19 01:27N 52°25' E 003°57'0 0.1
2016-Aug-19 00:33N 52°25' E 003°57'0 0.0
2016-Aug-18 23:33N 52°25' E 003°57'0 0.0
2016-Aug-18 22:33N 52°25' E 003°57'0 0.0
2016-Aug-18 21:33N 52°25' E 003°57'0 0.0
2016-Aug-18 20:27N 52°25' E 003°57'0 0.0
2016-Aug-18 19:33N 52°25' E 003°57'0 0.0
2016-Aug-18 18:27N 52°25' E 003°57'0 0.0
2016-Aug-18 17:33N 52°25' E 003°57'0 0.1
2016-Aug-18 16:30N 52°25' E 003°57'0 0.0
2016-Aug-18 15:27N 52°25' E 003°57'0 0.0
2016-Aug-18 14:33N 52°25' E 003°57'0 0.1
2016-Aug-18 13:30N 52°25' E 003°57'0 0.1
2016-Aug-18 12:27N 52°25' E 003°57'0 0.0
2016-Aug-18 11:33N 52°25' E 003°57'0 0.0
2016-Aug-18 10:21N 52°25' E 003°57'0 0.0
2016-Aug-18 09:30N 52°25' E 003°57'0 0.0
2016-Aug-18 08:33N 52°25' E 003°57'0 0.0
2016-Aug-18 07:33N 52°25' E 003°57'0 0.0
2016-Aug-18 06:33N 52°25' E 003°57'0 0.0
2016-Aug-18 05:33N 52°25' E 003°57'0 0.1
2016-Aug-18 04:33N 52°25' E 003°57'0 0.0
2016-Aug-18 03:27N 52°25' E 003°57'0 0.0
2016-Aug-18 02:33N 52°25' E 003°57'0 0.0
2016-Aug-18 01:33N 52°25' E 003°57'0 0.1
2016-Aug-18 00:33N 52°25' E 003°57'0 0.0
2016-Aug-17 23:33N 52°25' E 003°57'0 0.0
2016-Aug-17 22:33N 52°25' E 003°57'0 0.0
2016-Aug-17 21:33N 52°25' E 003°57'0 0.0
2016-Aug-17 20:33N 52°25' E 003°57'0 0.0
2016-Aug-17 19:33N 52°25' E 003°57'0 0.0
2016-Aug-17 18:33N 52°25' E 003°57'0 0.0
2016-Aug-17 17:33N 52°25' E 003°57'0 0.1
2016-Aug-17 16:33N 52°25' E 003°57'0 0.0
2016-Aug-17 15:33N 52°25' E 003°57'0 0.0
2016-Aug-17 14:33N 52°25' E 003°57'0 0.0
2016-Aug-17 13:33N 52°25' E 003°57'0 0.1
2016-Aug-17 12:33N 52°25' E 003°57'0 0.0
2016-Aug-17 11:33N 52°25' E 003°57'0 0.0
2016-Aug-17 10:33N 52°25' E 003°57'0 0.0
2016-Aug-17 09:33N 52°25' E 003°57'0 0.0
2016-Aug-17 08:33N 52°25' E 003°57'0 0.0
2016-Aug-17 07:21N 52°25' E 003°57'0 0.0
2016-Aug-17 06:33N 52°25' E 003°57'0 0.0
2016-Aug-17 05:33N 52°25' E 003°57'0 0.1
2016-Aug-17 04:27N 52°25' E 003°57'0 0.0
2016-Aug-17 03:33N 52°25' E 003°57'0 0.0
2016-Aug-17 02:33N 52°25' E 003°57'0 0.0
2016-Aug-17 01:30N 52°25' E 003°57'0 0.1
2016-Aug-17 00:33N 52°25' E 003°57'0 0.1
2016-Aug-16 23:33N 52°25' E 003°57'0 0.0
2016-Aug-16 22:33N 52°25' E 003°57'0 0.0
2016-Aug-16 21:33N 52°25' E 003°57'0 0.0
2016-Aug-16 20:33N 52°25' E 003°57'0 0.0
2016-Aug-16 19:27N 52°25' E 003°57'0 0.0
2016-Aug-16 18:27N 52°25' E 003°57'0 0.0
2016-Aug-16 17:33N 52°25' E 003°57'0 0.1
2016-Aug-16 16:21N 52°25' E 003°57'0 0.1
2016-Aug-16 15:33N 52°25' E 003°57'0 0.0
2016-Aug-16 14:33N 52°25' E 003°57'0 0.0
2016-Aug-16 13:33N 52°25' E 003°57'0 0.0
2016-Aug-16 12:33N 52°25' E 003°57'0 0.1
2016-Aug-16 11:33N 52°25' E 003°57'0 0.1
2016-Aug-16 10:33N 52°25' E 003°57'0 0.0
2016-Aug-16 09:33N 52°25' E 003°57'0 0.0
2016-Aug-16 08:33N 52°25' E 003°57'0 0.0
2016-Aug-16 07:33N 52°25' E 003°57'0 0.0
2016-Aug-16 06:33N 52°25' E 003°57'0 0.0
2016-Aug-16 04:33N 52°25' E 003°57'0 0.1
2016-Aug-16 03:33N 52°25' E 003°57'0 0.0
2016-Aug-16 02:33N 52°25' E 003°57'0 0.0
2016-Aug-16 01:33N 52°25' E 003°57'0 0.0
2016-Aug-16 00:33N 52°25' E 003°57'0 0.1
2016-Aug-15 23:33N 52°25' E 003°57'0 0.0
2016-Aug-15 22:33N 52°25' E 003°57'0 0.0
2016-Aug-15 21:33N 52°25' E 003°57'0 0.0
2016-Aug-15 20:33N 52°25' E 003°57'0 0.0
2016-Aug-15 19:33N 52°25' E 003°57'0 0.0
2016-Aug-15 18:33N 52°25' E 003°57'0 0.0
2016-Aug-15 17:33N 52°25' E 003°57'0 0.0
2016-Aug-15 16:33N 52°25' E 003°57'0 0.0
2016-Aug-15 15:33N 52°25' E 003°57'0 0.1
2016-Aug-15 14:33N 52°25' E 003°57'0 0.1
2016-Aug-15 13:33N 52°25' E 003°57'0 0.0
2016-Aug-15 12:27N 52°25' E 003°57'0 0.1
2016-Aug-15 11:21N 52°25' E 003°57'0 0.0
2016-Aug-15 10:33N 52°25' E 003°57'0 0.0
2016-Aug-15 09:33N 52°25' E 003°57'0 0.0
2016-Aug-15 08:33N 52°25' E 003°57'0 0.0
2016-Aug-15 07:33N 52°25' E 003°57'0 0.0
2016-Aug-15 06:33N 52°25' E 003°57'0 0.0
2016-Aug-15 04:33N 52°25' E 003°57'0 0.0
2016-Aug-15 03:30N 52°25' E 003°57'0 0.1
2016-Aug-15 02:33N 52°25' E 003°57'0 0.0
2016-Aug-15 01:30N 52°25' E 003°57'  

Dump ship's entire track history